sensor_id;sensor_type;location;lat;lon;timestamp;temperature;humidity
44982;DHT22;30716;41.740;-70.400;2023-04-08T00:02:22;24.50;40.50
44982;DHT22;30716;41.740;-70.400;2023-04-08T00:04:48;24.50;40.50
44982;DHT22;30716;41.740;-70.400;2023-04-08T00:07:15;24.50;40.50
44982;DHT22;30716;41.740;-70.400;2023-04-08T00:10:10;24.50;40.60
44982;DHT22;30716;41.740;-70.400;2023-04-08T00:12:39;24.50;40.50
44982;DHT22;30716;41.740;-70.400;2023-04-08T00:15:22;24.60;40.60
44982;DHT22;30716;41.740;-70.400;2023-04-08T00:18:27;24.50;40.50
44982;DHT22;30716;41.740;-70.400;2023-04-08T00:20:56;24.60;40.60
44982;DHT22;30716;41.740;-70.400;2023-04-08T00:23:23;24.50;40.50
44982;DHT22;30716;41.740;-70.400;2023-04-08T00:25:57;24.50;40.70
44982;DHT22;30716;41.740;-70.400;2023-04-08T00:31:00;24.60;40.60
44982;DHT22;30716;41.740;-70.400;2023-04-08T00:33:26;24.60;40.50
44982;DHT22;30716;41.740;-70.400;2023-04-08T00:35:53;24.60;40.40
44982;DHT22;30716;41.740;-70.400;2023-04-08T00:38:20;24.60;40.40
44982;DHT22;30716;41.740;-70.400;2023-04-08T00:45:47;24.50;40.20
44982;DHT22;30716;41.740;-70.400;2023-04-08T00:48:13;24.60;40.60
44982;DHT22;30716;41.740;-70.400;2023-04-08T00:50:42;24.50;40.40
44982;DHT22;30716;41.740;-70.400;2023-04-08T00:53:08;24.50;40.50
44982;DHT22;30716;41.740;-70.400;2023-04-08T00:55:35;24.50;40.40
44982;DHT22;30716;41.740;-70.400;2023-04-08T00:58:01;24.50;40.40
44982;DHT22;30716;41.740;-70.400;2023-04-08T01:00:29;24.50;40.40
44982;DHT22;30716;41.740;-70.400;2023-04-08T01:03:17;24.50;40.30
44982;DHT22;30716;41.740;-70.400;2023-04-08T01:08:20;24.50;40.30
44982;DHT22;30716;41.740;-70.400;2023-04-08T01:10:50;24.50;40.30
44982;DHT22;30716;41.740;-70.400;2023-04-08T01:13:23;24.50;40.30
44982;DHT22;30716;41.740;-70.400;2023-04-08T01:15:52;24.50;40.30
44982;DHT22;30716;41.740;-70.400;2023-04-08T01:18:21;24.50;40.20
44982;DHT22;30716;41.740;-70.400;2023-04-08T01:20:49;24.50;40.40
44982;DHT22;30716;41.740;-70.400;2023-04-08T01:23:39;24.50;40.20
44982;DHT22;30716;41.740;-70.400;2023-04-08T01:26:11;24.50;40.20
44982;DHT22;30716;41.740;-70.400;2023-04-08T01:28:39;24.40;40.10
44982;DHT22;30716;41.740;-70.400;2023-04-08T01:31:06;24.50;40.20
44982;DHT22;30716;41.740;-70.400;2023-04-08T01:33:33;24.50;40.10
44982;DHT22;30716;41.740;-70.400;2023-04-08T01:36:01;24.50;40.10
44982;DHT22;30716;41.740;-70.400;2023-04-08T01:38:31;24.50;40.10
44982;DHT22;30716;41.740;-70.400;2023-04-08T01:40:59;24.50;40.20
44982;DHT22;30716;41.740;-70.400;2023-04-08T01:43:27;24.50;40.10
44982;DHT22;30716;41.740;-70.400;2023-04-08T01:45:54;24.40;40.00
44982;DHT22;30716;41.740;-70.400;2023-04-08T01:48:29;24.50;40.30
44982;DHT22;30716;41.740;-70.400;2023-04-08T01:50:56;24.50;40.10
44982;DHT22;30716;41.740;-70.400;2023-04-08T01:53:24;24.40;40.70
44982;DHT22;30716;41.740;-70.400;2023-04-08T01:55:56;24.40;40.00
44982;DHT22;30716;41.740;-70.400;2023-04-08T01:58:24;24.40;40.80
44982;DHT22;30716;41.740;-70.400;2023-04-08T02:00:53;24.40;40.00
44982;DHT22;30716;41.740;-70.400;2023-04-08T02:03:23;24.40;40.00
44982;DHT22;30716;41.740;-70.400;2023-04-08T02:05:50;24.40;40.10
44982;DHT22;30716;41.740;-70.400;2023-04-08T02:08:16;24.40;40.00
44982;DHT22;30716;41.740;-70.400;2023-04-08T02:10:43;24.40;40.00
44982;DHT22;30716;41.740;-70.400;2023-04-08T02:13:09;24.40;40.10
44982;DHT22;30716;41.740;-70.400;2023-04-08T02:15:41;24.40;40.00
44982;DHT22;30716;41.740;-70.400;2023-04-08T02:18:16;24.40;40.00
44982;DHT22;30716;41.740;-70.400;2023-04-08T02:20:56;24.40;39.90
44982;DHT22;30716;41.740;-70.400;2023-04-08T02:23:55;24.40;40.60
44982;DHT22;30716;41.740;-70.400;2023-04-08T02:26:27;24.40;40.00
44982;DHT22;30716;41.740;-70.400;2023-04-08T02:28:54;24.50;40.00
44982;DHT22;30716;41.740;-70.400;2023-04-08T02:31:22;24.40;39.70
44982;DHT22;30716;41.740;-70.400;2023-04-08T02:33:50;24.40;39.80
44982;DHT22;30716;41.740;-70.400;2023-04-08T02:36:16;24.50;39.80
44982;DHT22;30716;41.740;-70.400;2023-04-08T02:38:47;24.50;39.80
44982;DHT22;30716;41.740;-70.400;2023-04-08T02:41:15;24.50;39.70
44982;DHT22;30716;41.740;-70.400;2023-04-08T02:43:42;24.50;39.70
44982;DHT22;30716;41.740;-70.400;2023-04-08T02:46:09;24.40;39.60
44982;DHT22;30716;41.740;-70.400;2023-04-08T02:48:37;24.40;39.50
44982;DHT22;30716;41.740;-70.400;2023-04-08T02:51:03;24.50;39.60
44982;DHT22;30716;41.740;-70.400;2023-04-08T02:53:33;24.50;39.70
44982;DHT22;30716;41.740;-70.400;2023-04-08T02:55:59;24.40;39.60
44982;DHT22;30716;41.740;-70.400;2023-04-08T02:58:25;24.50;40.20
44982;DHT22;30716;41.740;-70.400;2023-04-08T03:00:51;24.50;40.40
44982;DHT22;30716;41.740;-70.400;2023-04-08T03:03:18;24.50;39.50
44982;DHT22;30716;41.740;-70.400;2023-04-08T03:05:44;24.50;39.50
44982;DHT22;30716;41.740;-70.400;2023-04-08T03:08:10;24.50;39.50
44982;DHT22;30716;41.740;-70.400;2023-04-08T03:10:36;24.50;39.50
44982;DHT22;30716;41.740;-70.400;2023-04-08T03:13:03;24.50;39.60
44982;DHT22;30716;41.740;-70.400;2023-04-08T03:15:29;24.50;39.60
44982;DHT22;30716;41.740;-70.400;2023-04-08T03:17:56;24.50;39.50
44982;DHT22;30716;41.740;-70.400;2023-04-08T03:20:22;24.50;39.50
44982;DHT22;30716;41.740;-70.400;2023-04-08T03:22:49;24.50;39.30
44982;DHT22;30716;41.740;-70.400;2023-04-08T03:25:16;24.50;39.40
44982;DHT22;30716;41.740;-70.400;2023-04-08T03:27:44;24.50;39.40
44982;DHT22;30716;41.740;-70.400;2023-04-08T03:30:11;24.60;39.50
44982;DHT22;30716;41.740;-70.400;2023-04-08T03:32:37;24.50;39.40
44982;DHT22;30716;41.740;-70.400;2023-04-08T03:35:05;24.50;40.10
44982;DHT22;30716;41.740;-70.400;2023-04-08T03:37:32;24.60;39.40
44982;DHT22;30716;41.740;-70.400;2023-04-08T03:39:59;24.50;39.30
44982;DHT22;30716;41.740;-70.400;2023-04-08T03:42:27;24.60;39.40
44982;DHT22;30716;41.740;-70.400;2023-04-08T03:44:54;24.60;39.50
44982;DHT22;30716;41.740;-70.400;2023-04-08T03:47:21;24.60;39.40
44982;DHT22;30716;41.740;-70.400;2023-04-08T03:49:47;24.60;39.40
44982;DHT22;30716;41.740;-70.400;2023-04-08T03:52:14;24.50;39.30
44982;DHT22;30716;41.740;-70.400;2023-04-08T03:54:40;24.60;39.50
44982;DHT22;30716;41.740;-70.400;2023-04-08T03:57:06;24.60;39.50
44982;DHT22;30716;41.740;-70.400;2023-04-08T03:59:33;24.60;39.50
44982;DHT22;30716;41.740;-70.400;2023-04-08T04:02:01;24.60;39.40
44982;DHT22;30716;41.740;-70.400;2023-04-08T04:04:27;24.60;39.40
44982;DHT22;30716;41.740;-70.400;2023-04-08T04:06:53;24.60;39.50
44982;DHT22;30716;41.740;-70.400;2023-04-08T04:09:21;24.60;39.40
44982;DHT22;30716;41.740;-70.400;2023-04-08T04:11:47;24.60;39.50
44982;DHT22;30716;41.740;-70.400;2023-04-08T04:14:13;24.60;39.40
44982;DHT22;30716;41.740;-70.400;2023-04-08T04:16:39;24.60;39.40
44982;DHT22;30716;41.740;-70.400;2023-04-08T04:19:06;24.60;39.40
44982;DHT22;30716;41.740;-70.400;2023-04-08T04:21:32;24.60;39.40
44982;DHT22;30716;41.740;-70.400;2023-04-08T04:23:58;24.60;39.40
44982;DHT22;30716;41.740;-70.400;2023-04-08T04:26:24;24.60;39.40
44982;DHT22;30716;41.740;-70.400;2023-04-08T04:28:51;24.60;39.40
44982;DHT22;30716;41.740;-70.400;2023-04-08T04:31:22;24.60;39.50
44982;DHT22;30716;41.740;-70.400;2023-04-08T04:33:51;24.60;39.40
44982;DHT22;30716;41.740;-70.400;2023-04-08T04:36:17;24.60;39.40
44982;DHT22;30716;41.740;-70.400;2023-04-08T04:38:45;24.60;39.40
44982;DHT22;30716;41.740;-70.400;2023-04-08T04:41:11;24.60;39.40
44982;DHT22;30716;41.740;-70.400;2023-04-08T04:43:38;24.60;39.40
44982;DHT22;30716;41.740;-70.400;2023-04-08T04:46:04;24.60;39.50
44982;DHT22;30716;41.740;-70.400;2023-04-08T04:48:34;24.60;39.40
44982;DHT22;30716;41.740;-70.400;2023-04-08T04:51:01;24.60;39.40
44982;DHT22;30716;41.740;-70.400;2023-04-08T04:53:32;24.60;39.40
44982;DHT22;30716;41.740;-70.400;2023-04-08T04:55:58;24.60;39.40
44982;DHT22;30716;41.740;-70.400;2023-04-08T04:58:26;24.60;39.50
44982;DHT22;30716;41.740;-70.400;2023-04-08T05:00:52;24.60;39.40
44982;DHT22;30716;41.740;-70.400;2023-04-08T05:03:19;24.60;39.90
44982;DHT22;30716;41.740;-70.400;2023-04-08T05:05:50;24.60;39.40
44982;DHT22;30716;41.740;-70.400;2023-04-08T05:08:17;24.60;39.40
44982;DHT22;30716;41.740;-70.400;2023-04-08T05:10:43;24.60;39.40
44982;DHT22;30716;41.740;-70.400;2023-04-08T05:13:09;24.60;39.50
44982;DHT22;30716;41.740;-70.400;2023-04-08T05:15:36;24.60;39.40
44982;DHT22;30716;41.740;-70.400;2023-04-08T05:18:02;24.60;39.40
44982;DHT22;30716;41.740;-70.400;2023-04-08T05:20:28;24.60;39.50
44982;DHT22;30716;41.740;-70.400;2023-04-08T05:22:54;24.60;39.40
44982;DHT22;30716;41.740;-70.400;2023-04-08T05:25:21;24.60;39.50
44982;DHT22;30716;41.740;-70.400;2023-04-08T05:27:47;24.60;39.40
44982;DHT22;30716;41.740;-70.400;2023-04-08T05:30:13;24.60;39.40
44982;DHT22;30716;41.740;-70.400;2023-04-08T05:32:40;24.60;39.40
44982;DHT22;30716;41.740;-70.400;2023-04-08T05:35:07;24.60;39.40
44982;DHT22;30716;41.740;-70.400;2023-04-08T05:37:34;24.60;39.50
44982;DHT22;30716;41.740;-70.400;2023-04-08T05:40:00;24.60;39.40
44982;DHT22;30716;41.740;-70.400;2023-04-08T05:42:27;24.60;39.30
44982;DHT22;30716;41.740;-70.400;2023-04-08T05:44:53;24.60;39.40
44982;DHT22;30716;41.740;-70.400;2023-04-08T05:47:19;24.60;39.20
44982;DHT22;30716;41.740;-70.400;2023-04-08T05:49:45;24.60;39.30
44982;DHT22;30716;41.740;-70.400;2023-04-08T05:52:12;24.60;39.30
44982;DHT22;30716;41.740;-70.400;2023-04-08T05:54:41;24.60;39.20
44982;DHT22;30716;41.740;-70.400;2023-04-08T05:57:07;24.60;39.10
44982;DHT22;30716;41.740;-70.400;2023-04-08T05:59:33;24.60;39.10
44982;DHT22;30716;41.740;-70.400;2023-04-08T06:02:00;24.60;39.00
44982;DHT22;30716;41.740;-70.400;2023-04-08T06:04:26;24.60;39.00
44982;DHT22;30716;41.740;-70.400;2023-04-08T06:06:52;24.60;39.00
44982;DHT22;30716;41.740;-70.400;2023-04-08T06:09:18;24.60;39.00
44982;DHT22;30716;41.740;-70.400;2023-04-08T06:11:45;24.60;39.00
44982;DHT22;30716;41.740;-70.400;2023-04-08T06:14:12;24.60;39.00
44982;DHT22;30716;41.740;-70.400;2023-04-08T06:16:38;24.60;38.90
44982;DHT22;30716;41.740;-70.400;2023-04-08T06:19:04;24.60;38.90
44982;DHT22;30716;41.740;-70.400;2023-04-08T06:21:30;24.60;39.00
44982;DHT22;30716;41.740;-70.400;2023-04-08T06:23:57;24.60;38.90
44982;DHT22;30716;41.740;-70.400;2023-04-08T06:26:23;24.60;38.80
44982;DHT22;30716;41.740;-70.400;2023-04-08T06:28:49;24.60;38.70
44982;DHT22;30716;41.740;-70.400;2023-04-08T06:31:16;24.70;38.80
44982;DHT22;30716;41.740;-70.400;2023-04-08T06:33:43;24.70;38.90
44982;DHT22;30716;41.740;-70.400;2023-04-08T06:36:09;24.70;38.80
44982;DHT22;30716;41.740;-70.400;2023-04-08T06:38:36;24.70;38.80
44982;DHT22;30716;41.740;-70.400;2023-04-08T06:41:03;24.70;38.70
44982;DHT22;30716;41.740;-70.400;2023-04-08T06:43:30;24.70;38.70
44982;DHT22;30716;41.740;-70.400;2023-04-08T06:45:56;24.70;38.70
44982;DHT22;30716;41.740;-70.400;2023-04-08T06:48:24;24.70;38.70
44982;DHT22;30716;41.740;-70.400;2023-04-08T06:50:55;24.70;38.70
44982;DHT22;30716;41.740;-70.400;2023-04-08T06:53:23;24.70;38.60
44982;DHT22;30716;41.740;-70.400;2023-04-08T06:55:49;24.70;38.60
44982;DHT22;30716;41.740;-70.400;2023-04-08T06:58:16;24.70;38.50
44982;DHT22;30716;41.740;-70.400;2023-04-08T07:00:43;24.70;38.50
44982;DHT22;30716;41.740;-70.400;2023-04-08T07:03:09;24.80;38.60
44982;DHT22;30716;41.740;-70.400;2023-04-08T07:05:36;24.70;38.40
44982;DHT22;30716;41.740;-70.400;2023-04-08T07:08:04;24.70;38.40
44982;DHT22;30716;41.740;-70.400;2023-04-08T07:10:30;24.70;38.50
44982;DHT22;30716;41.740;-70.400;2023-04-08T07:12:57;24.80;38.50
44982;DHT22;30716;41.740;-70.400;2023-04-08T07:15:23;24.80;38.50
44982;DHT22;30716;41.740;-70.400;2023-04-08T07:17:49;24.80;38.50
44982;DHT22;30716;41.740;-70.400;2023-04-08T07:20:16;24.80;38.60
44982;DHT22;30716;41.740;-70.400;2023-04-08T07:22:43;24.80;38.60
44982;DHT22;30716;41.740;-70.400;2023-04-08T07:25:09;24.80;38.60
44982;DHT22;30716;41.740;-70.400;2023-04-08T07:27:35;24.80;38.60
44982;DHT22;30716;41.740;-70.400;2023-04-08T07:30:02;24.80;38.60
44982;DHT22;30716;41.740;-70.400;2023-04-08T07:32:28;24.80;38.60
44982;DHT22;30716;41.740;-70.400;2023-04-08T07:34:55;24.80;38.50
44982;DHT22;30716;41.740;-70.400;2023-04-08T07:37:21;24.80;38.60
44982;DHT22;30716;41.740;-70.400;2023-04-08T07:39:47;24.80;38.50
44982;DHT22;30716;41.740;-70.400;2023-04-08T07:42:13;24.80;38.50
44982;DHT22;30716;41.740;-70.400;2023-04-08T07:44:39;24.80;38.50
44982;DHT22;30716;41.740;-70.400;2023-04-08T07:47:06;24.80;38.40
44982;DHT22;30716;41.740;-70.400;2023-04-08T07:49:32;24.80;38.60
44982;DHT22;30716;41.740;-70.400;2023-04-08T07:51:58;24.80;38.50
44982;DHT22;30716;41.740;-70.400;2023-04-08T07:54:24;24.80;38.40
44982;DHT22;30716;41.740;-70.400;2023-04-08T07:56:50;24.80;38.30
44982;DHT22;30716;41.740;-70.400;2023-04-08T07:59:16;24.80;38.30
44982;DHT22;30716;41.740;-70.400;2023-04-08T08:01:43;24.80;38.30
44982;DHT22;30716;41.740;-70.400;2023-04-08T08:04:09;24.80;38.50
44982;DHT22;30716;41.740;-70.400;2023-04-08T08:06:35;24.80;38.40
44982;DHT22;30716;41.740;-70.400;2023-04-08T08:09:01;24.80;38.30
44982;DHT22;30716;41.740;-70.400;2023-04-08T08:11:28;24.80;38.30
44982;DHT22;30716;41.740;-70.400;2023-04-08T08:13:54;24.80;38.30
44982;DHT22;30716;41.740;-70.400;2023-04-08T08:16:21;24.80;38.30
44982;DHT22;30716;41.740;-70.400;2023-04-08T08:18:51;24.80;38.20
44982;DHT22;30716;41.740;-70.400;2023-04-08T08:21:18;24.80;38.20
44982;DHT22;30716;41.740;-70.400;2023-04-08T08:23:44;24.80;38.20
44982;DHT22;30716;41.740;-70.400;2023-04-08T08:26:10;24.80;38.20
44982;DHT22;30716;41.740;-70.400;2023-04-08T08:28:37;24.80;38.20
44982;DHT22;30716;41.740;-70.400;2023-04-08T08:31:03;24.80;38.10
44982;DHT22;30716;41.740;-70.400;2023-04-08T08:33:31;24.80;38.10
44982;DHT22;30716;41.740;-70.400;2023-04-08T08:35:57;24.80;38.00
44982;DHT22;30716;41.740;-70.400;2023-04-08T08:38:24;24.80;38.20
44982;DHT22;30716;41.740;-70.400;2023-04-08T08:40:58;24.80;38.10
44982;DHT22;30716;41.740;-70.400;2023-04-08T08:43:25;24.80;38.20
44982;DHT22;30716;41.740;-70.400;2023-04-08T08:45:53;24.70;38.10
44982;DHT22;30716;41.740;-70.400;2023-04-08T08:48:19;24.80;38.20
44982;DHT22;30716;41.740;-70.400;2023-04-08T08:50:46;24.70;38.10
44982;DHT22;30716;41.740;-70.400;2023-04-08T08:53:12;24.80;38.20
44982;DHT22;30716;41.740;-70.400;2023-04-08T08:55:38;24.80;38.20
44982;DHT22;30716;41.740;-70.400;2023-04-08T08:58:06;24.80;38.20
44982;DHT22;30716;41.740;-70.400;2023-04-08T09:00:37;24.80;38.10
44982;DHT22;30716;41.740;-70.400;2023-04-08T09:05:57;24.80;38.20
44982;DHT22;30716;41.740;-70.400;2023-04-08T09:08:26;24.80;38.20
44982;DHT22;30716;41.740;-70.400;2023-04-08T09:10:53;24.70;38.10
44982;DHT22;30716;41.740;-70.400;2023-04-08T09:13:21;24.70;38.10
44982;DHT22;30716;41.740;-70.400;2023-04-08T09:16:07;24.70;38.00
44982;DHT22;30716;41.740;-70.400;2023-04-08T09:18:37;24.80;38.10
44982;DHT22;30716;41.740;-70.400;2023-04-08T09:21:05;24.80;38.20
44982;DHT22;30716;41.740;-70.400;2023-04-08T09:23:42;24.80;38.10
44982;DHT22;30716;41.740;-70.400;2023-04-08T09:28:43;24.80;38.00
44982;DHT22;30716;41.740;-70.400;2023-04-08T09:31:20;24.80;38.00
44982;DHT22;30716;41.740;-70.400;2023-04-08T09:33:51;24.80;38.00
44982;DHT22;30716;41.740;-70.400;2023-04-08T09:36:18;24.80;38.00
44982;DHT22;30716;41.740;-70.400;2023-04-08T09:38:45;24.80;38.00
44982;DHT22;30716;41.740;-70.400;2023-04-08T09:41:16;24.80;37.90
44982;DHT22;30716;41.740;-70.400;2023-04-08T09:43:47;24.80;38.00
44982;DHT22;30716;41.740;-70.400;2023-04-08T09:46:18;24.80;37.80
44982;DHT22;30716;41.740;-70.400;2023-04-08T09:49:04;24.80;37.80
44982;DHT22;30716;41.740;-70.400;2023-04-08T09:51:44;24.80;37.80
44982;DHT22;30716;41.740;-70.400;2023-04-08T09:54:13;24.80;37.80
44982;DHT22;30716;41.740;-70.400;2023-04-08T09:57:13;24.80;37.80
44982;DHT22;30716;41.740;-70.400;2023-04-08T09:59:48;24.80;37.70
44982;DHT22;30716;41.740;-70.400;2023-04-08T10:02:22;24.80;37.80
44982;DHT22;30716;41.740;-70.400;2023-04-08T10:04:51;24.80;37.80
44982;DHT22;30716;41.740;-70.400;2023-04-08T10:07:19;24.90;37.80
44982;DHT22;30716;41.740;-70.400;2023-04-08T10:09:45;24.80;37.80
44982;DHT22;30716;41.740;-70.400;2023-04-08T10:12:11;24.80;37.80
44982;DHT22;30716;41.740;-70.400;2023-04-08T10:14:38;24.80;37.80
44982;DHT22;30716;41.740;-70.400;2023-04-08T10:19:50;24.90;38.10
44982;DHT22;30716;41.740;-70.400;2023-04-08T10:25:28;24.90;38.00
44982;DHT22;30716;41.740;-70.400;2023-04-08T10:27:55;24.90;38.20
44982;DHT22;30716;41.740;-70.400;2023-04-08T10:32:55;24.80;38.00
44982;DHT22;30716;41.740;-70.400;2023-04-08T10:35:54;24.90;38.10
44982;DHT22;30716;41.740;-70.400;2023-04-08T10:38:21;24.90;38.10
44982;DHT22;30716;41.740;-70.400;2023-04-08T10:40:48;24.90;38.20
44982;DHT22;30716;41.740;-70.400;2023-04-08T10:43:14;24.90;38.00
44982;DHT22;30716;41.740;-70.400;2023-04-08T10:45:42;24.90;38.00
44982;DHT22;30716;41.740;-70.400;2023-04-08T10:48:18;24.90;38.10
44982;DHT22;30716;41.740;-70.400;2023-04-08T10:50:53;24.90;38.10
44982;DHT22;30716;41.740;-70.400;2023-04-08T10:53:27;24.90;38.10
44982;DHT22;30716;41.740;-70.400;2023-04-08T10:56:14;24.90;38.70
44982;DHT22;30716;41.740;-70.400;2023-04-08T10:58:53;25.00;38.10
44982;DHT22;30716;41.740;-70.400;2023-04-08T11:01:21;24.90;38.00
44982;DHT22;30716;41.740;-70.400;2023-04-08T11:03:48;24.90;38.00
44982;DHT22;30716;41.740;-70.400;2023-04-08T11:06:15;24.90;38.00
44982;DHT22;30716;41.740;-70.400;2023-04-08T11:08:42;25.00;38.00
44982;DHT22;30716;41.740;-70.400;2023-04-08T11:11:12;25.00;38.00
44982;DHT22;30716;41.740;-70.400;2023-04-08T11:13:44;24.90;38.00
44982;DHT22;30716;41.740;-70.400;2023-04-08T11:16:10;24.90;38.10
44982;DHT22;30716;41.740;-70.400;2023-04-08T11:18:38;24.90;38.00
44982;DHT22;30716;41.740;-70.400;2023-04-08T11:21:13;24.90;38.10
44982;DHT22;30716;41.740;-70.400;2023-04-08T11:23:41;24.90;38.00
44982;DHT22;30716;41.740;-70.400;2023-04-08T11:26:08;24.90;38.10
44982;DHT22;30716;41.740;-70.400;2023-04-08T11:28:35;24.90;38.00
44982;DHT22;30716;41.740;-70.400;2023-04-08T11:31:02;24.90;38.00
44982;DHT22;30716;41.740;-70.400;2023-04-08T11:33:32;24.90;38.00
44982;DHT22;30716;41.740;-70.400;2023-04-08T11:36:01;24.90;38.00
44982;DHT22;30716;41.740;-70.400;2023-04-08T11:38:29;24.90;38.00
44982;DHT22;30716;41.740;-70.400;2023-04-08T11:40:56;24.90;37.90
44982;DHT22;30716;41.740;-70.400;2023-04-08T11:43:25;24.90;38.00
44982;DHT22;30716;41.740;-70.400;2023-04-08T11:45:53;24.90;38.00
44982;DHT22;30716;41.740;-70.400;2023-04-08T11:48:19;24.90;37.90
44982;DHT22;30716;41.740;-70.400;2023-04-08T11:50:46;24.80;37.90
44982;DHT22;30716;41.740;-70.400;2023-04-08T11:53:19;24.90;37.90
44982;DHT22;30716;41.740;-70.400;2023-04-08T11:55:47;24.90;37.90
44982;DHT22;30716;41.740;-70.400;2023-04-08T11:58:13;24.80;37.80
44982;DHT22;30716;41.740;-70.400;2023-04-08T12:00:40;24.90;37.80
44982;DHT22;30716;41.740;-70.400;2023-04-08T12:03:07;24.90;37.90
44982;DHT22;30716;41.740;-70.400;2023-04-08T12:05:34;24.80;37.80
44982;DHT22;30716;41.740;-70.400;2023-04-08T12:08:01;24.80;38.20
44982;DHT22;30716;41.740;-70.400;2023-04-08T12:10:27;24.80;37.70
44982;DHT22;30716;41.740;-70.400;2023-04-08T12:12:53;24.80;37.70
44982;DHT22;30716;41.740;-70.400;2023-04-08T12:15:19;24.80;37.80
44982;DHT22;30716;41.740;-70.400;2023-04-08T12:17:46;24.90;37.90
44982;DHT22;30716;41.740;-70.400;2023-04-08T12:20:12;24.80;37.80
44982;DHT22;30716;41.740;-70.400;2023-04-08T12:22:39;24.80;37.90
44982;DHT22;30716;41.740;-70.400;2023-04-08T12:25:06;24.80;38.00
44982;DHT22;30716;41.740;-70.400;2023-04-08T12:27:32;24.80;37.90
44982;DHT22;30716;41.740;-70.400;2023-04-08T12:29:59;24.80;37.90
44982;DHT22;30716;41.740;-70.400;2023-04-08T12:32:26;24.80;38.00
44982;DHT22;30716;41.740;-70.400;2023-04-08T12:34:52;24.80;37.90
44982;DHT22;30716;41.740;-70.400;2023-04-08T12:37:19;24.80;37.90
44982;DHT22;30716;41.740;-70.400;2023-04-08T12:39:45;24.80;38.00
44982;DHT22;30716;41.740;-70.400;2023-04-08T12:42:12;24.80;38.00
44982;DHT22;30716;41.740;-70.400;2023-04-08T12:44:39;24.80;38.00
44982;DHT22;30716;41.740;-70.400;2023-04-08T12:47:05;24.80;38.00
44982;DHT22;30716;41.740;-70.400;2023-04-08T12:49:31;24.70;38.00
44982;DHT22;30716;41.740;-70.400;2023-04-08T12:51:57;24.80;37.90
44982;DHT22;30716;41.740;-70.400;2023-04-08T12:54:23;24.80;38.00
44982;DHT22;30716;41.740;-70.400;2023-04-08T12:56:49;24.70;37.90
44982;DHT22;30716;41.740;-70.400;2023-04-08T12:59:16;24.70;38.00
44982;DHT22;30716;41.740;-70.400;2023-04-08T13:01:42;24.70;37.80
44982;DHT22;30716;41.740;-70.400;2023-04-08T13:04:08;24.70;37.80
44982;DHT22;30716;41.740;-70.400;2023-04-08T13:06:34;24.70;37.70
44982;DHT22;30716;41.740;-70.400;2023-04-08T13:09:00;24.70;37.70
44982;DHT22;30716;41.740;-70.400;2023-04-08T13:11:27;24.70;37.80
44982;DHT22;30716;41.740;-70.400;2023-04-08T13:13:53;24.70;37.80
44982;DHT22;30716;41.740;-70.400;2023-04-08T13:16:19;24.70;37.80
44982;DHT22;30716;41.740;-70.400;2023-04-08T13:18:46;24.70;37.70
44982;DHT22;30716;41.740;-70.400;2023-04-08T13:21:12;24.70;37.80
44982;DHT22;30716;41.740;-70.400;2023-04-08T13:23:38;24.70;37.70
44982;DHT22;30716;41.740;-70.400;2023-04-08T13:26:05;24.60;37.80
44982;DHT22;30716;41.740;-70.400;2023-04-08T13:28:31;24.70;38.20
44982;DHT22;30716;41.740;-70.400;2023-04-08T13:30:57;24.70;37.80
44982;DHT22;30716;41.740;-70.400;2023-04-08T13:33:23;24.60;37.60
44982;DHT22;30716;41.740;-70.400;2023-04-08T13:35:49;24.70;37.80
44982;DHT22;30716;41.740;-70.400;2023-04-08T13:38:16;24.60;37.70
44982;DHT22;30716;41.740;-70.400;2023-04-08T13:40:42;24.60;37.90
44982;DHT22;30716;41.740;-70.400;2023-04-08T13:43:08;24.60;38.10
44982;DHT22;30716;41.740;-70.400;2023-04-08T13:45:34;24.60;38.30
44982;DHT22;30716;41.740;-70.400;2023-04-08T13:48:01;24.60;38.30
44982;DHT22;30716;41.740;-70.400;2023-04-08T13:50:27;24.60;38.30
44982;DHT22;30716;41.740;-70.400;2023-04-08T13:52:53;24.60;38.50
44982;DHT22;30716;41.740;-70.400;2023-04-08T13:55:19;24.60;38.60
44982;DHT22;30716;41.740;-70.400;2023-04-08T13:57:45;24.60;38.60
44982;DHT22;30716;41.740;-70.400;2023-04-08T14:00:12;24.60;39.10
44982;DHT22;30716;41.740;-70.400;2023-04-08T14:02:38;24.60;39.60
44982;DHT22;30716;41.740;-70.400;2023-04-08T14:05:05;24.60;39.40
44982;DHT22;30716;41.740;-70.400;2023-04-08T14:07:31;24.50;39.30
44982;DHT22;30716;41.740;-70.400;2023-04-08T14:09:58;24.60;39.40
44982;DHT22;30716;41.740;-70.400;2023-04-08T14:12:24;24.50;39.30
44982;DHT22;30716;41.740;-70.400;2023-04-08T14:14:50;24.50;39.30
44982;DHT22;30716;41.740;-70.400;2023-04-08T14:17:16;24.50;39.40
44982;DHT22;30716;41.740;-70.400;2023-04-08T14:19:42;24.50;39.30
44982;DHT22;30716;41.740;-70.400;2023-04-08T14:22:08;24.50;39.30
44982;DHT22;30716;41.740;-70.400;2023-04-08T14:24:35;24.50;39.30
44982;DHT22;30716;41.740;-70.400;2023-04-08T14:27:01;24.50;40.10
44982;DHT22;30716;41.740;-70.400;2023-04-08T14:29:28;24.50;39.30
44982;DHT22;30716;41.740;-70.400;2023-04-08T14:31:54;24.50;39.30
44982;DHT22;30716;41.740;-70.400;2023-04-08T14:34:20;24.50;39.30
44982;DHT22;30716;41.740;-70.400;2023-04-08T14:36:46;24.50;39.30
44982;DHT22;30716;41.740;-70.400;2023-04-08T14:39:12;24.50;39.30
44982;DHT22;30716;41.740;-70.400;2023-04-08T14:41:39;24.50;39.40
44982;DHT22;30716;41.740;-70.400;2023-04-08T14:44:05;24.50;39.30
44982;DHT22;30716;41.740;-70.400;2023-04-08T14:46:31;24.40;39.20
44982;DHT22;30716;41.740;-70.400;2023-04-08T14:48:58;24.50;39.30
44982;DHT22;30716;41.740;-70.400;2023-04-08T14:51:25;24.40;39.20
44982;DHT22;30716;41.740;-70.400;2023-04-08T14:53:51;24.40;39.20
44982;DHT22;30716;41.740;-70.400;2023-04-08T14:56:18;24.40;39.20
44982;DHT22;30716;41.740;-70.400;2023-04-08T14:58:44;24.40;39.20
44982;DHT22;30716;41.740;-70.400;2023-04-08T15:01:10;24.40;39.20
44982;DHT22;30716;41.740;-70.400;2023-04-08T15:03:36;24.40;39.00
44982;DHT22;30716;41.740;-70.400;2023-04-08T15:06:03;24.40;38.90
44982;DHT22;30716;41.740;-70.400;2023-04-08T15:08:29;24.40;38.90
44982;DHT22;30716;41.740;-70.400;2023-04-08T15:10:55;24.40;39.70
44982;DHT22;30716;41.740;-70.400;2023-04-08T15:13:22;24.40;38.70
44982;DHT22;30716;41.740;-70.400;2023-04-08T15:15:48;24.40;38.80
44982;DHT22;30716;41.740;-70.400;2023-04-08T15:18:15;24.40;38.70
44982;DHT22;30716;41.740;-70.400;2023-04-08T15:20:41;24.40;38.80
44982;DHT22;30716;41.740;-70.400;2023-04-08T15:23:07;24.40;38.70
44982;DHT22;30716;41.740;-70.400;2023-04-08T15:25:33;24.40;38.70
44982;DHT22;30716;41.740;-70.400;2023-04-08T15:28:00;24.40;39.00
44982;DHT22;30716;41.740;-70.400;2023-04-08T15:30:27;24.40;38.70
44982;DHT22;30716;41.740;-70.400;2023-04-08T15:32:53;24.40;38.70